createdAt,value
2022-09-03T00:00:12.973Z,4.50
2022-09-03T00:04:06.807Z,4.10
2022-09-03T00:08:04.169Z,5.00
2022-09-03T00:12:10.924Z,5.70
2022-09-03T00:16:04.600Z,4.70
2022-09-03T00:20:11.122Z,4.10
2022-09-03T00:23:42.129Z,5.10
2022-09-03T00:27:28.846Z,4.40
2022-09-03T00:31:15.345Z,4.80
2022-09-03T00:35:00.549Z,4.40
2022-09-03T00:38:23.534Z,4.30
2022-09-03T00:42:10.744Z,4.10
2022-09-03T00:49:33.439Z,4.00
2022-09-03T00:53:57.662Z,4.20
2022-09-03T00:57:47.812Z,3.70
2022-09-03T01:01:53.533Z,3.50
2022-09-03T01:06:01.778Z,3.80
2022-09-03T01:09:52.883Z,4.40
2022-09-03T01:13:30.575Z,3.30
2022-09-03T01:17:16.652Z,4.00
2022-09-03T01:21:15.170Z,3.90
2022-09-03T01:25:10.751Z,3.70
2022-09-03T01:28:56.534Z,4.00
2022-09-03T01:32:58.908Z,3.80
2022-09-03T01:37:00.879Z,4.00
2022-09-03T01:40:55.998Z,5.00
2022-09-03T01:45:23.406Z,4.60
2022-09-03T01:49:29.912Z,4.50
2022-09-03T01:53:43.042Z,4.50
2022-09-03T02:01:00.871Z,4.00
2022-09-03T02:04:45.786Z,4.90
2022-09-03T02:08:25.412Z,4.30
2022-09-03T02:11:59.579Z,4.40
2022-09-03T02:15:20.414Z,5.80
2022-09-03T02:18:42.249Z,4.00
2022-09-03T02:21:48.867Z,5.10
2022-09-03T02:25:32.403Z,5.00
2022-09-03T02:29:04.997Z,5.10
2022-09-03T02:32:31.349Z,5.50
2022-09-03T02:36:07.980Z,5.90
2022-09-03T02:39:39.408Z,5.40
2022-09-03T02:42:47.302Z,4.90
2022-09-03T02:46:18.355Z,5.10
2022-09-03T02:49:43.124Z,5.20
2022-09-03T02:53:21.427Z,6.00
2022-09-03T02:57:27.597Z,5.10
2022-09-03T03:00:52.397Z,4.60
2022-09-03T03:04:27.284Z,4.80
2022-09-03T03:08:12.521Z,4.90
2022-09-03T03:11:36.953Z,5.40
2022-09-03T03:15:05.695Z,4.80
2022-09-03T03:19:00.743Z,4.70
2022-09-03T03:22:45.480Z,5.20
2022-09-03T03:26:29.167Z,5.60
2022-09-03T03:30:31.841Z,4.50
2022-09-03T03:34:06.315Z,4.40
2022-09-03T03:37:32.888Z,5.10
2022-09-03T03:41:15.588Z,4.80
2022-09-03T03:45:04.736Z,4.70
2022-09-03T03:48:27.088Z,4.70
2022-09-03T03:52:03.153Z,5.30
2022-09-03T03:55:32.417Z,4.80
2022-09-03T03:59:21.571Z,4.90
2022-09-03T04:02:57.769Z,4.60
2022-09-03T04:06:41.569Z,4.60
2022-09-03T04:13:30.238Z,4.70
2022-09-03T04:16:47.009Z,4.60
2022-09-03T04:20:19.661Z,4.20
2022-09-03T04:23:54.210Z,4.90
2022-09-03T04:27:26.743Z,4.20
2022-09-03T04:30:51.646Z,4.50
2022-09-03T04:33:56.194Z,4.80
2022-09-03T04:37:20.220Z,4.30
2022-09-03T04:40:33.862Z,4.30
2022-09-03T04:44:19.554Z,4.10
2022-09-03T04:48:16.112Z,4.70
2022-09-03T04:51:35.272Z,5.10
2022-09-03T04:55:08.910Z,5.10
2022-09-03T05:01:32.739Z,4.70
2022-09-03T05:05:09.167Z,5.10
2022-09-03T05:08:31.840Z,5.70
2022-09-03T05:11:48.493Z,5.40
2022-09-03T05:15:41.198Z,5.70
2022-09-03T05:18:57.029Z,5.70
2022-09-03T05:22:23.496Z,5.10
2022-09-03T05:25:59.981Z,5.10
2022-09-03T05:32:34.838Z,4.60
2022-09-03T05:35:51.734Z,5.40
2022-09-03T05:38:58.464Z,4.60
2022-09-03T05:42:31.695Z,5.00
2022-09-03T05:46:07.381Z,4.10
2022-09-03T05:49:28.565Z,4.20
2022-09-03T05:53:20.670Z,3.80
2022-09-03T05:56:39.786Z,3.80
2022-09-03T05:59:28.330Z,3.20
2022-09-03T06:03:14.266Z,4.10
2022-09-03T06:06:15.046Z,3.80
2022-09-03T06:09:44.235Z,3.40
2022-09-03T06:12:42.412Z,3.30
2022-09-03T06:15:41.175Z,3.30
2022-09-03T06:18:33.402Z,3.40
2022-09-03T06:22:20.757Z,3.00
2022-09-03T06:25:27.810Z,3.10
2022-09-03T06:28:42.236Z,3.10
2022-09-03T06:32:00.247Z,2.50
2022-09-03T06:35:17.553Z,2.50
2022-09-03T06:38:33.641Z,3.00
2022-09-03T06:41:45.010Z,2.50
2022-09-03T06:44:40.178Z,2.30
2022-09-03T06:47:31.780Z,2.50
2022-09-03T06:50:28.612Z,2.40
2022-09-03T06:53:24.949Z,2.40
2022-09-03T06:56:19.482Z,2.20
2022-09-03T06:59:36.345Z,2.00
2022-09-03T07:02:31.875Z,1.90
2022-09-03T07:05:40.570Z,2.10
2022-09-03T07:08:33.576Z,2.00
2022-09-03T07:11:30.490Z,2.60
2022-09-03T07:14:31.183Z,2.60
2022-09-03T07:17:24.173Z,2.20
2022-09-03T07:20:07.694Z,2.20
2022-09-03T07:23:02.606Z,2.20
2022-09-03T07:25:56.701Z,2.50
2022-09-03T07:28:43.270Z,2.60
2022-09-03T07:31:29.609Z,1.60
2022-09-03T07:34:14.236Z,2.90
2022-09-03T07:37:00.943Z,2.00
2022-09-03T07:39:44.481Z,2.40
2022-09-03T07:42:31.262Z,2.20
2022-09-03T07:45:34.613Z,1.80
2022-09-03T07:48:24.271Z,3.00
2022-09-03T07:51:13.168Z,2.20
2022-09-03T07:53:58.582Z,1.70
2022-09-03T07:56:42.749Z,1.70
2022-09-03T07:59:48.879Z,2.40
2022-09-03T08:02:32.281Z,2.30
2022-09-03T08:05:15.158Z,1.90
2022-09-03T08:08:00.837Z,2.10
2022-09-03T08:11:40.059Z,1.70
2022-09-03T08:14:26.077Z,1.90
2022-09-03T08:17:34.152Z,1.50
2022-09-03T08:20:30.177Z,1.40
2022-09-03T08:23:37.609Z,1.60
2022-09-03T08:26:22.517Z,1.20
2022-09-03T08:29:06.809Z,1.80
2022-09-03T08:31:53.027Z,1.50
2022-09-03T08:34:43.302Z,1.40
2022-09-03T08:37:29.167Z,1.30
2022-09-03T08:40:24.407Z,1.10
2022-09-03T08:43:18.965Z,1.10
2022-09-03T08:46:06.899Z,1.40
2022-09-03T08:48:50.263Z,1.20
2022-09-03T08:51:38.615Z,1.40
2022-09-03T08:54:35.066Z,1.70
2022-09-03T08:57:24.087Z,1.30
2022-09-03T09:00:08.311Z,1.30
2022-09-03T09:03:04.411Z,1.20
2022-09-03T09:06:08.167Z,1.70
2022-09-03T09:09:09.621Z,1.40
2022-09-03T09:12:16.074Z,1.50
2022-09-03T09:15:34.483Z,0.90
2022-09-03T09:18:48.677Z,1.30
2022-09-03T09:21:46.268Z,2.20
2022-09-03T09:24:45.320Z,0.80
2022-09-03T09:27:46.628Z,1.20
2022-09-03T09:30:33.138Z,1.30
2022-09-03T09:33:17.725Z,1.40
2022-09-03T09:36:08.540Z,1.30
2022-09-03T09:38:53.209Z,1.00
2022-09-03T09:41:56.625Z,0.90
2022-09-03T09:44:44.560Z,1.50
2022-09-03T09:47:47.137Z,1.30
2022-09-03T09:50:43.142Z,1.50
2022-09-03T09:53:27.854Z,1.10
2022-09-03T09:56:28.960Z,0.90
2022-09-03T09:59:14.140Z,2.40
2022-09-03T10:02:28.744Z,1.60
2022-09-03T10:05:24.073Z,1.00
2022-09-03T10:08:20.294Z,1.80
2022-09-03T10:11:04.655Z,1.30
2022-09-03T10:13:50.508Z,1.00
2022-09-03T10:16:39.733Z,1.20
2022-09-03T10:19:40.434Z,1.90
2022-09-03T10:22:26.378Z,1.30
2022-09-03T10:25:16.883Z,2.00
2022-09-03T10:28:01.585Z,1.10
2022-09-03T10:31:23.781Z,1.70
2022-09-03T10:34:10.861Z,1.40
2022-09-03T10:37:02.687Z,1.00
2022-09-03T10:40:21.005Z,1.10
2022-09-03T10:43:18.911Z,1.30
2022-09-03T10:46:24.381Z,1.10
2022-09-03T10:49:19.582Z,1.10
2022-09-03T10:52:43.130Z,1.20
2022-09-03T10:55:50.700Z,1.90
2022-09-03T10:59:03.523Z,0.90
2022-09-03T11:02:04.586Z,0.90
2022-09-03T11:05:37.248Z,1.10
2022-09-03T11:08:30.527Z,1.10
2022-09-03T11:11:21.802Z,1.00
2022-09-03T11:14:10.234Z,0.90
2022-09-03T11:16:59.965Z,1.00
2022-09-03T11:19:51.361Z,2.00
2022-09-03T11:22:35.870Z,1.30
2022-09-03T11:25:26.056Z,2.00
2022-09-03T11:28:29.731Z,1.20
2022-09-03T11:31:32.610Z,0.80
2022-09-03T11:34:34.090Z,0.90
2022-09-03T11:37:25.150Z,0.60
2022-09-03T11:40:19.535Z,1.40
2022-09-03T11:43:28.558Z,1.30
2022-09-03T11:46:23.776Z,1.60
2022-09-03T11:49:13.946Z,1.50
2022-09-03T11:52:02.109Z,1.50
2022-09-03T11:54:46.428Z,1.50
2022-09-03T11:57:33.607Z,1.00
2022-09-03T12:00:22.581Z,1.10
2022-09-03T12:03:06.090Z,1.90
2022-09-03T12:06:04.389Z,2.00
2022-09-03T12:09:06.439Z,1.00
2022-09-03T12:12:13.457Z,1.10
2022-09-03T12:15:09.789Z,1.80
2022-09-03T12:18:14.924Z,1.20
2022-09-03T12:21:00.389Z,1.40
2022-09-03T12:23:45.813Z,0.80
2022-09-03T12:26:29.219Z,1.10
2022-09-03T12:29:27.521Z,2.00
2022-09-03T12:32:13.691Z,1.10
2022-09-03T12:34:57.010Z,1.10
2022-09-03T12:43:58.842Z,1.70
2022-09-03T12:46:42.689Z,1.20
2022-09-03T12:49:31.117Z,1.30
2022-09-03T12:52:20.126Z,1.40
2022-09-03T12:55:08.997Z,1.10
2022-09-03T12:58:02.093Z,1.00
2022-09-03T13:00:56.816Z,1.20
2022-09-03T13:04:30.216Z,1.00
2022-09-03T13:07:22.354Z,1.50
2022-09-03T13:10:08.805Z,1.30
2022-09-03T13:12:54.861Z,1.40
2022-09-03T13:15:53.743Z,1.20
2022-09-03T13:19:05.841Z,1.20
2022-09-03T13:22:09.529Z,1.00
2022-09-03T13:25:08.923Z,1.00
2022-09-03T13:28:28.906Z,1.20
2022-09-03T13:31:27.287Z,1.90
2022-09-03T13:34:21.072Z,1.20
2022-09-03T13:37:13.062Z,1.20
2022-09-03T13:40:04.046Z,1.20
2022-09-03T13:42:57.509Z,1.30
2022-09-03T13:45:50.943Z,1.40
2022-09-03T13:48:57.968Z,2.00
2022-09-03T13:52:01.247Z,1.70
2022-09-03T13:54:53.250Z,1.90
2022-09-03T13:57:47.115Z,1.40
2022-09-03T14:00:58.228Z,2.90
2022-09-03T14:04:02.981Z,1.30
2022-09-03T14:06:57.065Z,1.10
2022-09-03T14:09:51.922Z,1.40
2022-09-03T14:12:46.914Z,1.20
2022-09-03T14:15:58.236Z,1.40
2022-09-03T14:18:55.318Z,1.30
2022-09-03T14:22:01.663Z,1.80
2022-09-03T14:24:51.572Z,1.40
2022-09-03T14:27:36.099Z,1.00
2022-09-03T14:30:42.205Z,1.40
2022-09-03T14:33:50.054Z,1.80
2022-09-03T14:36:51.113Z,2.30
2022-09-03T14:39:38.381Z,1.20
2022-09-03T14:42:48.724Z,1.30
2022-09-03T14:45:54.489Z,1.40
2022-09-03T14:48:56.193Z,1.10
2022-09-03T14:52:17.469Z,1.00
2022-09-03T14:55:20.065Z,1.50
2022-09-03T14:58:34.149Z,1.40
2022-09-03T15:01:37.605Z,1.50
2022-09-03T15:05:11.485Z,1.30
2022-09-03T15:08:01.231Z,1.20
2022-09-03T15:11:04.000Z,1.20
2022-09-03T15:14:09.137Z,1.80
2022-09-03T15:17:04.989Z,1.70
2022-09-03T15:20:05.332Z,1.60
2022-09-03T15:23:14.666Z,1.50
2022-09-03T15:26:03.603Z,1.70
2022-09-03T15:29:10.684Z,1.20
2022-09-03T15:32:35.841Z,1.40
2022-09-03T15:35:46.072Z,1.30
2022-09-03T15:38:41.489Z,1.00
2022-09-03T15:41:53.952Z,1.60
2022-09-03T15:44:46.901Z,1.50
2022-09-03T15:47:54.515Z,1.40
2022-09-03T15:50:55.726Z,1.70
2022-09-03T15:53:53.703Z,1.80
2022-09-03T15:56:47.382Z,1.60
2022-09-03T15:59:40.087Z,2.30
2022-09-03T16:02:49.292Z,1.60
2022-09-03T16:06:16.953Z,1.10
2022-09-03T16:09:14.569Z,1.40
2022-09-03T16:12:28.025Z,1.20
2022-09-03T16:15:24.205Z,2.00
2022-09-03T16:18:30.218Z,1.50
2022-09-03T16:21:59.463Z,1.90
2022-09-03T16:25:02.721Z,1.50
2022-09-03T16:28:01.616Z,1.10
2022-09-03T16:31:10.054Z,1.60
2022-09-03T16:33:56.146Z,1.70
2022-09-03T16:36:50.795Z,1.50
2022-09-03T16:39:57.919Z,1.40
2022-09-03T16:42:48.886Z,1.40
2022-09-03T16:46:03.773Z,1.60
2022-09-03T16:49:11.785Z,1.50
2022-09-03T16:52:09.697Z,1.40
2022-09-03T16:55:15.770Z,1.80
2022-09-03T16:58:08.039Z,2.00
2022-09-03T17:04:40.539Z,2.50
2022-09-03T17:07:35.616Z,1.80
2022-09-03T17:10:29.148Z,1.60
2022-09-03T17:13:57.328Z,2.00
2022-09-03T17:16:59.307Z,1.80
2022-09-03T17:19:48.273Z,2.00
2022-09-03T17:22:45.161Z,2.30
2022-09-03T17:25:39.522Z,1.50
2022-09-03T17:28:59.910Z,1.80
2022-09-03T17:35:23.433Z,1.50
2022-09-03T17:38:48.546Z,1.40
2022-09-03T17:41:59.216Z,2.60
2022-09-03T17:45:23.582Z,2.60
2022-09-03T17:48:45.241Z,2.60
2022-09-03T17:52:20.529Z,2.20
2022-09-03T17:55:35.849Z,2.40
2022-09-03T17:58:37.472Z,2.60
2022-09-03T18:01:45.189Z,3.50
2022-09-03T18:04:40.183Z,1.80
2022-09-03T18:07:58.723Z,2.40
2022-09-03T18:11:11.835Z,2.00
2022-09-03T18:14:22.157Z,2.50
2022-09-03T18:17:21.079Z,2.10
2022-09-03T18:20:32.100Z,2.20
2022-09-03T18:23:57.070Z,3.40
2022-09-03T18:27:20.097Z,2.70
2022-09-03T18:30:32.966Z,2.00
2022-09-03T18:33:55.784Z,3.00
2022-09-03T18:36:57.812Z,2.80
2022-09-03T18:40:06.570Z,2.70
2022-09-03T18:43:23.028Z,2.60
2022-09-03T18:50:40.943Z,3.00
2022-09-03T18:53:59.350Z,2.70
2022-09-03T18:57:07.334Z,2.90
2022-09-03T19:00:28.725Z,3.20
2022-09-03T19:03:54.198Z,3.60
2022-09-03T19:07:39.779Z,3.50
2022-09-03T19:10:47.497Z,2.70
2022-09-03T19:14:10.455Z,3.00
2022-09-03T19:17:40.046Z,3.70
2022-09-03T19:20:50.992Z,2.60
2022-09-03T19:24:02.510Z,2.70
2022-09-03T19:30:56.601Z,2.00
2022-09-03T19:34:36.154Z,1.80
2022-09-03T19:38:03.662Z,2.50
2022-09-03T19:41:39.116Z,1.80
2022-09-03T19:45:14.693Z,2.00
2022-09-03T19:48:54.409Z,1.80
2022-09-03T19:52:26.051Z,1.50
2022-09-03T19:55:45.845Z,2.60
2022-09-03T19:58:57.433Z,2.20
2022-09-03T20:02:02.063Z,2.00
2022-09-03T20:05:29.088Z,1.80
2022-09-03T20:08:45.238Z,1.70
2022-09-03T20:11:42.733Z,1.70
2022-09-03T20:14:55.776Z,2.50
2022-09-03T20:18:02.334Z,2.00
2022-09-03T20:21:02.793Z,1.40
2022-09-03T20:24:13.158Z,1.80
2022-09-03T20:27:23.694Z,2.00
2022-09-03T20:30:30.044Z,1.10
2022-09-03T20:33:51.363Z,1.80
2022-09-03T20:37:09.679Z,2.00
2022-09-03T20:40:26.964Z,1.80
2022-09-03T20:43:40.479Z,2.10
2022-09-03T20:46:45.643Z,1.80
2022-09-03T20:49:40.549Z,2.10
2022-09-03T20:53:01.308Z,1.50
2022-09-03T20:56:03.782Z,2.10
2022-09-03T20:59:17.306Z,1.70
2022-09-03T21:02:18.683Z,1.90
2022-09-03T21:05:17.848Z,2.10
2022-09-03T21:08:41.970Z,1.40
2022-09-03T21:11:55.613Z,1.20
2022-09-03T21:14:55.495Z,1.50
2022-09-03T21:18:14.978Z,1.20
2022-09-03T21:21:24.586Z,1.30
2022-09-03T21:24:41.810Z,1.90
2022-09-03T21:27:49.710Z,1.80
2022-09-03T21:30:51.759Z,1.50
2022-09-03T21:34:02.082Z,2.10
2022-09-03T21:37:00.983Z,1.70
2022-09-03T21:40:26.957Z,1.60
2022-09-03T21:43:56.207Z,1.90
2022-09-03T21:47:34.017Z,1.70
2022-09-03T21:51:05.524Z,2.00
2022-09-03T21:54:35.736Z,1.30
2022-09-03T21:58:14.507Z,1.30
2022-09-03T22:01:30.721Z,1.70
2022-09-03T22:04:42.899Z,1.40
2022-09-03T22:08:31.208Z,1.70
2022-09-03T22:12:43.854Z,1.50
2022-09-03T22:16:13.923Z,1.40
2022-09-03T22:19:23.374Z,1.50
2022-09-03T22:22:57.941Z,1.50
2022-09-03T22:26:47.793Z,1.60
2022-09-03T22:29:39.577Z,1.50
2022-09-03T22:33:21.810Z,1.20
2022-09-03T22:36:31.134Z,1.50
2022-09-03T22:40:06.187Z,1.70
2022-09-03T22:43:30.116Z,1.70
2022-09-03T22:46:22.546Z,1.70
2022-09-03T22:53:04.404Z,1.90
2022-09-03T22:56:22.745Z,1.70
2022-09-03T22:59:12.405Z,1.40
2022-09-03T23:02:45.048Z,1.60
2022-09-03T23:06:25.442Z,1.60
2022-09-03T23:09:42.402Z,2.00
2022-09-03T23:13:02.985Z,1.70
2022-09-03T23:16:02.909Z,2.20
2022-09-03T23:19:35.787Z,1.30
2022-09-03T23:22:47.044Z,1.60
2022-09-03T23:25:37.972Z,1.40
2022-09-03T23:29:18.474Z,2.00
2022-09-03T23:32:34.201Z,1.80
2022-09-03T23:36:06.127Z,1.60
2022-09-03T23:39:27.938Z,1.60
2022-09-03T23:42:58.441Z,1.60
2022-09-03T23:46:30.910Z,1.70
2022-09-03T23:49:59.233Z,1.50
2022-09-03T23:53:40.946Z,2.00
2022-09-03T23:57:35.147Z,2.10
